La Ward, Texas
Current Conditions -  °F | °C
As of 8:53 PM on Saturday 25 Oct 2014 (Local Time) from KPSX Reporting Station
Clear Clear  
Wind Chill: 69°   Ceiling: Unl
Heat Index: 69°   Visibility: 10mi
Dew Point: 63°   Wind: 6mph
Humidity: 81%   Direction: 140°SE
Pressure: 30.11"   Gusts: NA
Location:  28.84°N, 96.46°W
Report Text: KPSX 260153Z AUTO 14005KT 10SM CLR 21/17 A3011 RMK AO2 SLP194 T02060172
Loading
Personal Weather Stations






























Interactive Weather Map
Tropical Storm Tracking
New forecast layout! Learn more

10-Day Weather Forecast

Advertisements
Track Severe Weather on mobile